createdAt,value
2019-03-13T00:00:37.751Z,46.20
2019-03-13T00:01:37.946Z,46.20
2019-03-13T00:02:37.729Z,46.51
2019-03-13T00:03:37.757Z,46.51
2019-03-13T00:04:37.795Z,45.58
2019-03-13T00:05:37.707Z,45.68
2019-03-13T00:06:37.791Z,45.79
2019-03-13T00:07:37.802Z,46.41
2019-03-13T00:08:37.793Z,45.58
2019-03-13T00:09:37.655Z,46.20
2019-03-13T00:10:37.679Z,46.18
2019-03-13T00:11:38.254Z,46.90
2019-03-13T00:12:37.634Z,46.39
2019-03-13T00:13:37.781Z,46.30
2019-03-13T00:14:37.802Z,46.28
2019-03-13T00:15:37.615Z,46.28
2019-03-13T00:16:37.616Z,46.18
2019-03-13T00:17:37.619Z,46.39
2019-03-13T00:18:37.624Z,46.59
2019-03-13T00:19:37.770Z,46.28
2019-03-13T00:20:37.615Z,47.00
2019-03-13T00:21:37.533Z,46.30
2019-03-13T00:22:37.508Z,46.28
2019-03-13T00:23:37.501Z,46.28
2019-03-13T00:24:37.498Z,45.76
2019-03-13T00:25:37.634Z,46.18
2019-03-13T00:26:37.470Z,46.48
2019-03-13T00:27:37.463Z,45.36
2019-03-13T00:28:37.454Z,45.34
2019-03-13T00:29:37.581Z,46.06
2019-03-13T00:30:37.428Z,45.46
2019-03-13T00:31:37.464Z,46.18
2019-03-13T00:32:37.437Z,45.87
2019-03-13T00:33:37.421Z,45.04
2019-03-13T00:34:37.432Z,44.62
2019-03-13T00:35:37.476Z,44.51
2019-03-13T00:36:37.479Z,44.72
2019-03-13T00:37:37.380Z,45.13
2019-03-13T00:38:37.343Z,44.51
2019-03-13T00:39:37.333Z,44.51
2019-03-13T00:40:37.321Z,44.92
2019-03-13T00:41:37.334Z,44.51
2019-03-13T00:42:37.465Z,44.51
2019-03-13T00:43:37.317Z,44.62
2019-03-13T00:44:37.282Z,45.13
2019-03-13T00:45:37.264Z,44.43
2019-03-13T00:46:37.258Z,44.72
2019-03-13T00:47:37.422Z,44.41
2019-03-13T00:48:37.242Z,44.51
2019-03-13T00:49:37.225Z,44.62
2019-03-13T00:50:37.208Z,44.82
2019-03-13T00:51:37.261Z,44.51
2019-03-13T00:52:37.192Z,44.51
2019-03-13T00:53:37.265Z,44.62
2019-03-13T00:54:37.272Z,44.92
2019-03-13T00:55:37.167Z,44.92
2019-03-13T00:56:37.148Z,44.53
2019-03-13T00:57:37.136Z,44.43
2019-03-13T00:58:37.253Z,43.69
2019-03-13T00:59:37.123Z,43.69
2019-03-13T01:00:37.114Z,44.00
2019-03-13T01:01:37.093Z,44.10
2019-03-13T01:02:37.081Z,44.00
2019-03-13T01:03:37.169Z,43.69
2019-03-13T01:04:37.083Z,43.90
2019-03-13T01:05:37.061Z,43.18
2019-03-13T01:06:37.156Z,44.00
2019-03-13T01:07:37.025Z,44.10
2019-03-13T01:08:37.021Z,44.00
2019-03-13T01:09:37.067Z,43.90
2019-03-13T01:10:36.990Z,43.59
2019-03-13T01:11:36.988Z,43.77
2019-03-13T01:12:37.098Z,43.77
2019-03-13T01:13:36.958Z,43.26
2019-03-13T01:14:36.956Z,43.16
2019-03-13T01:15:37.392Z,43.26
2019-03-13T01:16:36.925Z,43.16
2019-03-13T01:17:39.039Z,43.16
2019-03-13T01:18:37.017Z,43.16
2019-03-13T01:19:37.043Z,42.33
2019-03-13T01:20:36.892Z,42.95
2019-03-13T01:21:36.978Z,43.57
2019-03-13T01:22:36.860Z,43.36
2019-03-13T01:23:36.899Z,43.16
2019-03-13T01:24:36.840Z,43.36
2019-03-13T01:25:36.824Z,43.26
2019-03-13T01:26:36.845Z,43.28
2019-03-13T01:27:37.093Z,43.36
2019-03-13T01:28:36.801Z,43.07
2019-03-13T01:29:36.798Z,43.46
2019-03-13T01:30:36.778Z,43.07
2019-03-13T01:31:36.760Z,44.08
2019-03-13T01:32:36.760Z,43.59
2019-03-13T01:33:36.938Z,43.90
2019-03-13T01:34:36.735Z,43.48
2019-03-13T01:35:36.728Z,43.38
2019-03-13T01:36:36.702Z,44.41
2019-03-13T01:37:36.696Z,45.64
2019-03-13T01:38:36.682Z,46.06
2019-03-13T01:39:36.790Z,46.57
2019-03-13T01:40:36.681Z,46.57
2019-03-13T01:41:36.656Z,46.77
2019-03-13T01:42:37.285Z,49.65
2019-03-13T01:43:36.931Z,53.28
2019-03-13T01:44:36.752Z,54.10
2019-03-13T01:45:36.646Z,56.05
2019-03-13T01:46:36.622Z,58.11
2019-03-13T01:47:36.635Z,58.14
2019-03-13T01:48:36.575Z,62.97
2019-03-13T01:49:36.572Z,61.56
2019-03-13T01:50:36.662Z,63.21
2019-03-13T01:51:36.553Z,63.21
2019-03-13T01:52:36.537Z,63.10
2019-03-13T01:53:36.543Z,62.59
2019-03-13T01:54:36.514Z,61.38
2019-03-13T01:55:36.612Z,61.56
2019-03-13T01:56:36.485Z,62.82
2019-03-13T01:57:36.492Z,62.49
2019-03-13T01:58:36.620Z,61.66
2019-03-13T01:59:36.454Z,59.81
2019-03-13T02:00:36.502Z,59.30
2019-03-13T02:01:36.580Z,59.91
2019-03-13T02:02:36.434Z,62.41
2019-03-13T02:03:36.507Z,64.99
2019-03-13T02:04:36.399Z,65.40
2019-03-13T02:05:36.394Z,66.87
2019-03-13T02:06:36.477Z,66.87
2019-03-13T02:07:36.366Z,67.70
2019-03-13T02:08:36.359Z,68.55
2019-03-13T02:09:36.474Z,67.80
2019-03-13T02:10:36.337Z,68.86
2019-03-13T02:11:36.330Z,69.45
2019-03-13T02:12:36.315Z,70.72
2019-03-13T02:13:36.323Z,71.34
2019-03-13T02:14:36.300Z,71.13
2019-03-13T02:15:36.459Z,73.50
2019-03-13T02:16:36.276Z,72.19
2019-03-13T02:17:36.257Z,73.12
2019-03-13T02:18:36.245Z,73.54
2019-03-13T02:19:36.240Z,75.49
2019-03-13T02:20:37.812Z,74.36
2019-03-13T02:21:36.353Z,75.49
2019-03-13T02:22:36.208Z,75.18
2019-03-13T02:23:36.211Z,75.70
2019-03-13T02:24:36.180Z,76.98
2019-03-13T02:25:36.179Z,77.08
2019-03-13T02:26:36.180Z,80.18
2019-03-13T02:27:36.261Z,81.31
2019-03-13T02:28:36.154Z,81.31
2019-03-13T02:29:36.142Z,76.87
2019-03-13T02:30:36.120Z,81.35
2019-03-13T02:31:36.187Z,77.80
2019-03-13T02:32:36.210Z,80.62
2019-03-13T02:33:36.086Z,79.08
2019-03-13T02:34:36.229Z,84.23
2019-03-13T02:35:36.061Z,84.44
2019-03-13T02:36:36.068Z,81.45
2019-03-13T02:37:36.141Z,84.03
2019-03-13T02:38:36.043Z,81.49
2019-03-13T02:39:36.125Z,81.35
2019-03-13T02:40:36.012Z,80.11
2019-03-13T02:41:36.793Z,80.38
2019-03-13T02:42:35.986Z,81.76
2019-03-13T02:43:36.068Z,81.14
2019-03-13T02:44:35.966Z,81.66
2019-03-13T02:45:35.958Z,81.86
2019-03-13T02:46:35.943Z,81.14
2019-03-13T02:47:35.938Z,81.04
2019-03-13T02:48:35.921Z,81.76
2019-03-13T02:49:36.112Z,80.15
2019-03-13T02:50:35.901Z,79.18
2019-03-13T02:51:35.899Z,80.83
2019-03-13T02:52:35.891Z,81.14
2019-03-13T02:53:35.863Z,78.97
2019-03-13T02:54:35.858Z,78.77
2019-03-13T02:55:35.958Z,79.28
2019-03-13T02:56:36.005Z,78.25
2019-03-13T02:57:35.819Z,78.73
2019-03-13T02:58:35.815Z,78.45
2019-03-13T02:59:35.812Z,79.18
2019-03-13T03:00:37.700Z,80.21
2019-03-13T03:01:35.811Z,78.21
2019-03-13T03:02:36.669Z,77.39
2019-03-13T03:03:35.754Z,78.63
2019-03-13T03:04:35.904Z,78.94
2019-03-13T03:05:35.748Z,77.80
2019-03-13T03:06:35.800Z,77.28
2019-03-13T03:07:35.717Z,77.49
2019-03-13T03:08:35.935Z,77.80
2019-03-13T03:09:35.701Z,77.91
2019-03-13T03:10:35.675Z,77.80
2019-03-13T03:11:35.666Z,77.70
2019-03-13T03:12:35.786Z,78.21
2019-03-13T03:13:35.650Z,77.18
2019-03-13T03:14:35.773Z,77.18
2019-03-13T03:15:35.656Z,76.67
2019-03-13T03:16:35.612Z,76.87
2019-03-13T03:17:35.614Z,76.77
2019-03-13T03:18:35.603Z,76.77
2019-03-13T03:19:35.776Z,76.77
2019-03-13T03:20:35.606Z,75.84
2019-03-13T03:21:35.633Z,75.84
2019-03-13T03:22:35.579Z,75.84
2019-03-13T03:23:35.780Z,75.74
2019-03-13T03:24:35.529Z,75.63
2019-03-13T03:25:35.820Z,75.84
2019-03-13T03:26:35.515Z,75.60
2019-03-13T03:27:35.492Z,74.57
2019-03-13T03:28:35.483Z,73.33
2019-03-13T03:29:38.911Z,74.88
2019-03-13T03:30:35.464Z,74.88
2019-03-13T03:31:35.450Z,75.49
2019-03-13T03:32:35.448Z,74.88
2019-03-13T03:33:35.479Z,74.67
2019-03-13T03:34:35.415Z,74.98
2019-03-13T03:35:35.564Z,74.88
2019-03-13T03:36:35.405Z,74.67
2019-03-13T03:37:35.491Z,74.43
2019-03-13T03:38:35.430Z,73.85
2019-03-13T03:39:35.366Z,73.81
2019-03-13T03:40:35.386Z,72.27
2019-03-13T03:41:35.668Z,70.65
2019-03-13T03:42:35.335Z,70.82
2019-03-13T03:43:40.640Z,71.06
2019-03-13T03:44:36.489Z,69.59
2019-03-13T03:45:35.301Z,70.41
2019-03-13T03:46:35.290Z,71.16
2019-03-13T03:47:35.831Z,70.96
2019-03-13T03:48:35.269Z,70.44
2019-03-13T03:49:35.436Z,70.23
2019-03-13T03:50:35.255Z,70.86
2019-03-13T03:51:35.231Z,70.51
2019-03-13T03:52:35.222Z,70.72
2019-03-13T03:53:35.210Z,71.78
2019-03-13T03:54:35.278Z,71.37
2019-03-13T03:55:35.264Z,71.99
2019-03-13T03:56:35.184Z,71.78
2019-03-13T03:57:35.169Z,71.99
2019-03-13T03:58:35.153Z,72.40
2019-03-13T03:59:35.145Z,73.02
2019-03-13T04:00:35.253Z,73.64
2019-03-13T04:01:35.158Z,73.22
2019-03-13T04:02:35.117Z,73.33
2019-03-13T04:03:35.110Z,73.12
2019-03-13T04:04:35.089Z,73.68
2019-03-13T04:05:35.082Z,73.64
2019-03-13T04:06:35.130Z,73.54
2019-03-13T04:07:35.064Z,73.43
2019-03-13T04:08:37.808Z,73.54
2019-03-13T04:09:35.039Z,74.05
2019-03-13T04:10:35.018Z,72.71
2019-03-13T04:11:35.142Z,73.33
2019-03-13T04:12:35.075Z,73.54
2019-03-13T04:13:34.992Z,72.92
2019-03-13T04:14:35.006Z,72.95
2019-03-13T04:15:34.978Z,73.22
2019-03-13T04:16:34.955Z,73.02
2019-03-13T04:17:35.042Z,72.50
2019-03-13T04:18:34.932Z,72.19
2019-03-13T04:19:34.921Z,72.13
2019-03-13T04:20:34.914Z,71.61
2019-03-13T04:21:34.914Z,71.92
2019-03-13T04:22:34.910Z,71.81
2019-03-13T04:23:35.008Z,71.51
2019-03-13T04:24:34.912Z,71.30
2019-03-13T04:25:34.867Z,71.09
2019-03-13T04:26:34.856Z,71.30
2019-03-13T04:27:34.847Z,70.78
2019-03-13T04:28:35.005Z,69.85
2019-03-13T04:29:35.082Z,69.44
2019-03-13T04:30:34.798Z,69.44
2019-03-13T04:31:34.796Z,69.37
2019-03-13T04:32:34.775Z,69.13
2019-03-13T04:33:34.774Z,67.51
2019-03-13T04:34:34.923Z,67.07
2019-03-13T04:35:34.746Z,66.97
2019-03-13T04:36:34.740Z,66.97
2019-03-13T04:37:34.764Z,67.00
2019-03-13T04:38:34.714Z,67.41
2019-03-13T04:39:34.811Z,67.61
2019-03-13T04:40:34.703Z,67.82
2019-03-13T04:41:34.686Z,67.79
2019-03-13T04:42:34.666Z,67.72
2019-03-13T04:43:34.661Z,68.51
2019-03-13T04:44:34.675Z,68.62
2019-03-13T04:45:34.712Z,68.34
2019-03-13T04:46:34.643Z,69.06
2019-03-13T04:47:34.624Z,68.54
2019-03-13T04:48:34.602Z,67.72
2019-03-13T04:49:34.592Z,67.61
2019-03-13T04:50:34.587Z,68.54
2019-03-13T04:51:34.669Z,68.65
2019-03-13T04:52:34.572Z,68.96
2019-03-13T04:53:34.545Z,69.37
2019-03-13T04:54:34.537Z,68.65
2019-03-13T04:55:34.531Z,68.34
2019-03-13T04:56:34.637Z,68.03
2019-03-13T04:57:34.575Z,67.72
2019-03-13T04:58:34.500Z,67.82
2019-03-13T04:59:34.481Z,67.82
2019-03-13T05:00:34.487Z,67.61
2019-03-13T05:01:34.532Z,67.41
2019-03-13T05:02:34.553Z,67.61
2019-03-13T05:03:34.445Z,67.93
2019-03-13T05:04:34.428Z,67.10
2019-03-13T05:05:34.419Z,66.72
2019-03-13T05:06:34.405Z,65.27
2019-03-13T05:07:34.401Z,64.62
2019-03-13T05:08:44.577Z,65.03
2019-03-13T05:09:35.455Z,64.34
2019-03-13T05:10:34.369Z,63.42
2019-03-13T05:11:34.351Z,63.93
2019-03-13T05:12:34.343Z,64.65
2019-03-13T05:13:34.349Z,64.24
2019-03-13T05:14:34.339Z,63.82
2019-03-13T05:15:34.488Z,64.03
2019-03-13T05:16:34.305Z,63.93
2019-03-13T05:17:34.283Z,63.85
2019-03-13T05:18:34.356Z,64.17
2019-03-13T05:19:34.266Z,64.45
2019-03-13T05:20:34.533Z,64.17
2019-03-13T05:21:34.242Z,63.51
2019-03-13T05:22:34.266Z,63.65
2019-03-13T05:23:34.246Z,63.54
2019-03-13T05:24:34.219Z,63.85
2019-03-13T05:25:34.286Z,64.06
2019-03-13T05:26:34.278Z,63.89
2019-03-13T05:27:34.204Z,64.51
2019-03-13T05:28:34.169Z,64.71
2019-03-13T05:29:34.161Z,64.81
2019-03-13T05:30:34.144Z,65.02
2019-03-13T05:31:34.267Z,65.12
2019-03-13T05:32:34.130Z,65.12
2019-03-13T05:33:34.329Z,65.75
2019-03-13T05:34:34.099Z,65.23
2019-03-13T05:35:34.168Z,65.85
2019-03-13T05:36:34.106Z,65.95
2019-03-13T05:37:34.375Z,66.09
2019-03-13T05:38:34.161Z,65.47
2019-03-13T05:39:34.045Z,65.44
2019-03-13T05:40:34.032Z,65.12
2019-03-13T05:41:34.036Z,64.92
2019-03-13T05:42:34.010Z,65.44
2019-03-13T05:43:34.129Z,65.02
2019-03-13T05:44:33.993Z,64.78
2019-03-13T05:45:33.995Z,64.78
2019-03-13T05:46:34.071Z,64.99
2019-03-13T05:47:33.960Z,64.68
2019-03-13T05:48:33.962Z,64.89
2019-03-13T05:49:33.946Z,64.89
2019-03-13T05:50:33.931Z,65.09
2019-03-13T05:51:34.020Z,65.44
2019-03-13T05:52:33.902Z,64.99
2019-03-13T05:53:33.897Z,65.85
2019-03-13T05:54:33.896Z,64.58
2019-03-13T05:55:33.885Z,65.09
2019-03-13T05:56:33.863Z,64.81
2019-03-13T05:57:33.971Z,65.54
2019-03-13T05:58:33.867Z,64.92
2019-03-13T05:59:33.847Z,64.92
2019-03-13T06:00:33.822Z,64.78
2019-03-13T06:01:33.925Z,65.44
2019-03-13T06:02:34.007Z,65.33
2019-03-13T06:03:33.995Z,65.12
2019-03-13T06:04:33.860Z,65.12
2019-03-13T06:05:33.789Z,65.12
2019-03-13T06:06:33.997Z,65.33
2019-03-13T06:07:33.823Z,65.44
2019-03-13T06:08:33.732Z,65.12
2019-03-13T06:09:33.982Z,65.41
2019-03-13T06:10:33.844Z,65.30
2019-03-13T06:11:33.711Z,64.14
2019-03-13T06:12:33.704Z,64.45
2019-03-13T06:13:33.686Z,64.45
2019-03-13T06:14:33.866Z,64.14
2019-03-13T06:15:33.655Z,63.82
2019-03-13T06:16:33.826Z,64.03
2019-03-13T06:17:33.640Z,63.93
2019-03-13T06:18:33.637Z,64.03
2019-03-13T06:19:33.617Z,64.45
2019-03-13T06:20:33.612Z,63.49
2019-03-13T06:21:33.682Z,63.31
2019-03-13T06:22:33.610Z,63.39
2019-03-13T06:23:33.630Z,63.39
2019-03-13T06:24:33.698Z,63.49
2019-03-13T06:25:33.597Z,63.28
2019-03-13T06:26:33.625Z,63.82
2019-03-13T06:27:33.685Z,63.51
2019-03-13T06:28:33.523Z,63.42
2019-03-13T06:29:33.511Z,62.15
2019-03-13T06:30:33.509Z,62.25
2019-03-13T06:31:33.505Z,63.18
2019-03-13T06:32:33.517Z,63.31
2019-03-13T06:33:33.612Z,63.31
2019-03-13T06:34:33.449Z,62.90
2019-03-13T06:35:33.495Z,62.69
2019-03-13T06:36:33.439Z,62.59
2019-03-13T06:37:33.410Z,62.66
2019-03-13T06:38:33.397Z,63.18
2019-03-13T06:39:33.505Z,62.66
2019-03-13T06:40:33.388Z,62.25
2019-03-13T06:41:33.431Z,62.76
2019-03-13T06:42:33.361Z,63.10
2019-03-13T06:43:33.754Z,62.87
2019-03-13T06:44:33.332Z,62.69
2019-03-13T06:45:33.327Z,62.27
2019-03-13T06:46:33.324Z,63.69
2019-03-13T06:47:33.332Z,63.00
2019-03-13T06:48:33.338Z,63.31
2019-03-13T06:49:33.512Z,63.10
2019-03-13T06:50:33.443Z,63.62
2019-03-13T06:51:33.282Z,63.28
2019-03-13T06:52:33.335Z,63.39
2019-03-13T06:53:33.247Z,63.59
2019-03-13T06:54:33.228Z,62.97
2019-03-13T06:55:33.312Z,63.28
2019-03-13T06:56:33.347Z,62.55
2019-03-13T06:57:33.214Z,62.15
2019-03-13T06:58:33.255Z,62.66
2019-03-13T06:59:33.191Z,63.10
2019-03-13T07:00:33.369Z,63.51
2019-03-13T07:01:33.242Z,63.49
2019-03-13T07:02:33.324Z,63.67
2019-03-13T07:03:33.139Z,63.49
2019-03-13T07:04:33.130Z,63.04
2019-03-13T07:05:33.106Z,62.74
2019-03-13T07:06:33.135Z,62.22
2019-03-13T07:07:33.166Z,62.32
2019-03-13T07:08:33.115Z,62.22
2019-03-13T07:09:33.067Z,62.01
2019-03-13T07:10:33.064Z,62.74
2019-03-13T07:11:33.071Z,63.39
2019-03-13T07:12:33.122Z,60.56
2019-03-13T07:13:33.400Z,57.50
2019-03-13T07:14:33.086Z,52.56
2019-03-13T07:15:35.761Z,48.21
2019-03-13T07:16:32.995Z,48.18
2019-03-13T07:17:33.017Z,45.25
2019-03-13T07:18:33.005Z,48.07
2019-03-13T07:19:33.046Z,48.58
2019-03-13T07:20:32.945Z,46.98
2019-03-13T07:21:32.988Z,44.31
2019-03-13T07:22:32.935Z,40.44
2019-03-13T07:23:32.906Z,39.91
2019-03-13T07:24:33.051Z,42.04
2019-03-13T07:25:32.884Z,48.55
2019-03-13T07:26:32.885Z,50.46
2019-03-13T07:27:33.070Z,51.72
2019-03-13T07:28:32.865Z,52.04
2019-03-13T07:29:32.844Z,52.46
2019-03-13T07:30:32.919Z,53.72
2019-03-13T07:31:33.029Z,53.87
2019-03-13T07:32:33.161Z,55.85
2019-03-13T07:33:32.809Z,55.64
2019-03-13T07:34:32.862Z,55.85
2019-03-13T07:35:32.776Z,56.36
2019-03-13T07:36:32.775Z,56.49
2019-03-13T07:37:32.767Z,56.70
2019-03-13T07:38:32.858Z,56.38
2019-03-13T07:39:32.755Z,56.59
2019-03-13T07:40:32.724Z,57.86
2019-03-13T07:41:35.489Z,57.65
2019-03-13T07:42:32.761Z,57.44
2019-03-13T07:43:32.792Z,55.82
2019-03-13T07:44:32.674Z,55.62
2019-03-13T07:45:32.679Z,55.26
2019-03-13T07:46:32.700Z,53.74
2019-03-13T07:47:32.868Z,54.07
2019-03-13T07:48:32.638Z,54.66
2019-03-13T07:49:32.877Z,51.56
2019-03-13T07:50:32.634Z,50.26
2019-03-13T07:51:32.622Z,51.51
2019-03-13T07:52:33.076Z,47.94
2019-03-13T07:53:32.603Z,46.47
2019-03-13T07:54:32.701Z,45.02
2019-03-13T07:55:32.568Z,47.73
2019-03-13T07:56:32.666Z,49.85
2019-03-13T07:57:32.542Z,51.43
2019-03-13T07:58:32.541Z,52.04
2019-03-13T07:59:32.632Z,53.10
2019-03-13T08:00:32.504Z,53.64
2019-03-13T08:01:32.489Z,53.87
2019-03-13T08:02:32.492Z,53.97
2019-03-13T08:03:32.464Z,53.72
2019-03-13T08:04:33.735Z,53.30
2019-03-13T08:05:32.563Z,53.08
2019-03-13T08:06:32.454Z,48.48
2019-03-13T08:07:32.428Z,48.38
2019-03-13T08:08:32.430Z,47.06
2019-03-13T08:09:32.405Z,41.21
2019-03-13T08:10:32.397Z,39.39
2019-03-13T08:11:32.603Z,36.98
2019-03-13T08:12:32.370Z,34.35
2019-03-13T08:13:32.375Z,32.59
2019-03-13T08:14:32.365Z,32.32
2019-03-13T08:15:32.341Z,33.34
2019-03-13T08:16:32.330Z,32.52
2019-03-13T08:17:32.549Z,34.30
2019-03-13T08:18:46.888Z,34.50
2019-03-13T08:19:32.373Z,34.03
2019-03-13T08:20:32.296Z,31.23
2019-03-13T08:21:32.435Z,30.40
2019-03-13T08:22:32.266Z,33.69
2019-03-13T08:23:32.269Z,33.24
2019-03-13T08:24:32.233Z,31.15
2019-03-13T08:25:33.148Z,30.90
2019-03-13T08:26:32.219Z,29.24
2019-03-13T08:27:32.320Z,29.81
2019-03-13T08:28:32.224Z,32.98
2019-03-13T08:29:32.215Z,34.77
2019-03-13T08:30:32.171Z,36.99
2019-03-13T08:31:32.166Z,38.61
2019-03-13T08:32:32.166Z,39.29
2019-03-13T08:33:32.245Z,39.66
2019-03-13T08:34:32.131Z,36.71
2019-03-13T08:35:32.232Z,36.82
2019-03-13T08:36:32.163Z,35.82
2019-03-13T08:37:32.103Z,31.88
2019-03-13T08:38:32.084Z,30.96
2019-03-13T08:39:32.084Z,31.62
2019-03-13T08:40:32.062Z,34.05
2019-03-13T08:41:32.149Z,36.04
2019-03-13T08:42:32.050Z,33.91
2019-03-13T08:43:32.031Z,35.51
2019-03-13T08:44:32.040Z,36.32
2019-03-13T08:45:32.007Z,36.34
2019-03-13T08:46:32.739Z,36.04
2019-03-13T08:47:32.081Z,38.39
2019-03-13T08:48:31.984Z,37.82
2019-03-13T08:49:31.978Z,37.80
2019-03-13T08:50:31.958Z,39.19
2019-03-13T08:51:31.946Z,40.39
2019-03-13T08:52:31.973Z,40.35
2019-03-13T08:53:32.192Z,42.63
2019-03-13T08:54:31.922Z,43.71
2019-03-13T08:55:31.926Z,44.78
2019-03-13T08:56:32.162Z,44.63
2019-03-13T08:57:31.884Z,44.20
2019-03-13T08:58:31.864Z,42.80
2019-03-13T08:59:31.870Z,41.10
2019-03-13T09:00:31.852Z,43.32
2019-03-13T09:01:31.833Z,42.82
2019-03-13T09:02:32.007Z,37.10
2019-03-13T09:03:31.811Z,32.98
2019-03-13T09:04:31.809Z,30.68
2019-03-13T09:05:31.813Z,29.58
2019-03-13T09:06:31.804Z,30.83
2019-03-13T09:07:32.219Z,32.03
2019-03-13T09:08:31.915Z,32.36
2019-03-13T09:09:31.741Z,33.78
2019-03-13T09:10:31.833Z,32.62
2019-03-13T09:11:31.724Z,32.04
2019-03-13T09:12:31.738Z,31.82
2019-03-13T09:13:31.703Z,28.45
2019-03-13T09:14:31.895Z,28.67
2019-03-13T09:15:31.702Z,27.89
2019-03-13T09:16:31.680Z,25.96
2019-03-13T09:17:31.672Z,25.21
2019-03-13T09:18:31.661Z,28.52
2019-03-13T09:19:31.849Z,30.50
2019-03-13T09:20:31.641Z,33.81
2019-03-13T09:21:33.601Z,32.11
2019-03-13T09:22:31.662Z,30.98
2019-03-13T09:23:31.639Z,33.92
2019-03-13T09:24:31.628Z,37.71
2019-03-13T09:25:31.670Z,39.29
2019-03-13T09:26:31.551Z,39.07
2019-03-13T09:27:31.876Z,37.35
2019-03-13T09:28:31.547Z,35.51
2019-03-13T09:29:31.682Z,31.78
2019-03-13T09:30:31.509Z,31.94
2019-03-13T09:31:31.502Z,31.91
2019-03-13T09:32:31.516Z,32.58
2019-03-13T09:33:31.663Z,35.31
2019-03-13T09:34:31.480Z,35.33
2019-03-13T09:35:31.493Z,35.06
2019-03-13T09:36:31.453Z,30.87
2019-03-13T09:37:31.435Z,28.34
2019-03-13T09:38:31.432Z,30.67
2019-03-13T09:39:31.551Z,33.50
2019-03-13T09:40:31.425Z,33.75
2019-03-13T09:41:31.409Z,36.61
2019-03-13T09:42:31.437Z,39.09
2019-03-13T09:43:31.379Z,40.14
2019-03-13T09:44:31.700Z,40.35
2019-03-13T09:45:31.353Z,40.80
2019-03-13T09:46:31.342Z,39.92
2019-03-13T09:47:31.323Z,40.31
2019-03-13T09:48:31.309Z,34.87
2019-03-13T09:49:31.313Z,35.34
2019-03-13T09:50:31.412Z,37.14
2019-03-13T09:51:31.320Z,39.45
2019-03-13T09:52:31.276Z,40.37
2019-03-13T09:53:31.253Z,40.37
2019-03-13T09:54:31.250Z,41.00
2019-03-13T09:55:31.356Z,41.14
2019-03-13T09:56:31.223Z,41.44
2019-03-13T09:57:31.226Z,41.35
2019-03-13T09:58:31.317Z,39.90
2019-03-13T09:59:42.815Z,39.53
2019-03-13T10:00:32.309Z,41.41
2019-03-13T10:01:31.366Z,41.82
2019-03-13T10:02:31.197Z,42.16
2019-03-13T10:03:31.155Z,43.71
2019-03-13T10:04:31.161Z,44.14
2019-03-13T10:05:31.120Z,44.14
2019-03-13T10:06:31.115Z,44.14
2019-03-13T10:07:31.197Z,43.91
2019-03-13T10:08:31.096Z,42.67
2019-03-13T10:09:31.101Z,42.24
2019-03-13T10:10:31.070Z,43.30
2019-03-13T10:11:31.064Z,42.91
2019-03-13T10:12:31.178Z,43.35
2019-03-13T10:13:31.054Z,42.08
2019-03-13T10:14:31.040Z,42.91
2019-03-13T10:15:31.035Z,42.08
2019-03-13T10:16:31.083Z,42.29
2019-03-13T10:17:30.995Z,42.36
2019-03-13T10:18:31.182Z,40.67
2019-03-13T10:19:31.034Z,38.76
2019-03-13T10:20:30.973Z,36.43
2019-03-13T10:21:30.962Z,34.26
2019-03-13T10:22:30.942Z,34.77
2019-03-13T10:23:30.926Z,35.36
2019-03-13T10:24:31.106Z,36.93
2019-03-13T10:25:30.921Z,38.02
2019-03-13T10:26:30.900Z,39.15
2019-03-13T10:27:30.901Z,39.04
2019-03-13T10:28:30.868Z,39.78
2019-03-13T10:29:30.868Z,36.75
2019-03-13T10:30:31.037Z,33.94
2019-03-13T10:31:30.868Z,33.97
2019-03-13T10:32:30.842Z,35.99
2019-03-13T10:33:30.833Z,37.46
2019-03-13T10:34:30.802Z,38.72
2019-03-13T10:35:30.819Z,39.45
2019-03-13T10:36:30.876Z,40.69
2019-03-13T10:37:30.800Z,39.17
2019-03-13T10:38:30.769Z,40.61
2019-03-13T10:39:30.747Z,40.90
2019-03-13T10:40:30.878Z,39.23
2019-03-13T10:41:30.736Z,39.04
2019-03-13T10:42:30.722Z,39.01
2019-03-13T10:43:30.712Z,39.33
2019-03-13T10:44:30.709Z,39.11
2019-03-13T10:45:30.784Z,38.90
2019-03-13T10:46:30.701Z,37.02
2019-03-13T10:47:30.662Z,37.12
2019-03-13T10:48:30.709Z,33.10
2019-03-13T10:49:30.645Z,34.16
2019-03-13T10:50:30.809Z,33.75
2019-03-13T10:51:30.635Z,34.39
2019-03-13T10:52:30.613Z,32.55
2019-03-13T10:53:30.598Z,29.55
2019-03-13T10:54:30.588Z,30.82
2019-03-13T10:55:30.758Z,29.44
2019-03-13T10:56:30.690Z,27.98
2019-03-13T10:57:30.668Z,26.54
2019-03-13T10:58:30.561Z,26.96
2019-03-13T10:59:30.537Z,26.75
2019-03-13T11:00:30.515Z,26.84
2019-03-13T11:01:30.567Z,26.75
2019-03-13T11:02:30.504Z,26.47
2019-03-13T11:03:30.630Z,26.84
2019-03-13T11:04:30.477Z,26.46
2019-03-13T11:05:30.517Z,25.72
2019-03-13T11:06:30.452Z,28.77
2019-03-13T11:07:30.463Z,27.50
2019-03-13T11:08:30.425Z,29.39
2019-03-13T11:09:30.776Z,30.40
2019-03-13T11:10:30.419Z,28.71
2019-03-13T11:11:30.396Z,26.76
2019-03-13T11:12:30.391Z,28.34
2019-03-13T11:13:30.598Z,32.14
2019-03-13T11:14:30.391Z,34.22
2019-03-13T11:15:30.358Z,36.61
2019-03-13T11:16:30.345Z,37.17
2019-03-13T11:17:30.330Z,37.79
2019-03-13T11:18:30.329Z,37.80
2019-03-13T11:19:30.455Z,36.38
2019-03-13T11:20:30.348Z,33.54
2019-03-13T11:21:30.294Z,31.37
2019-03-13T11:22:30.348Z,31.80
2019-03-13T11:23:35.148Z,31.76
2019-03-13T11:24:30.263Z,31.52
2019-03-13T11:25:30.370Z,30.68
2019-03-13T11:26:30.254Z,28.97
2019-03-13T11:27:30.248Z,28.45
2019-03-13T11:28:30.245Z,29.79
2019-03-13T11:29:30.231Z,29.64
2019-03-13T11:30:30.199Z,29.62
2019-03-13T11:31:30.310Z,30.90
2019-03-13T11:32:30.185Z,32.51
2019-03-13T11:33:30.161Z,32.70
2019-03-13T11:34:30.145Z,32.84
2019-03-13T11:35:30.139Z,34.11
2019-03-13T11:36:30.156Z,34.19
2019-03-13T11:37:30.220Z,34.56
2019-03-13T11:38:30.110Z,35.22
2019-03-13T11:39:30.177Z,36.60
2019-03-13T11:40:30.077Z,37.53
2019-03-13T11:41:30.093Z,36.05
2019-03-13T11:42:30.172Z,36.69
2019-03-13T11:43:30.057Z,38.07
2019-03-13T11:44:30.036Z,39.13
2019-03-13T11:45:30.183Z,38.92
2019-03-13T11:46:30.015Z,39.53
2019-03-13T11:47:41.709Z,40.20
2019-03-13T11:48:30.989Z,41.77
2019-03-13T11:49:30.061Z,42.83
2019-03-13T11:50:32.469Z,43.77
2019-03-13T11:51:30.062Z,44.08
2019-03-13T11:52:29.948Z,43.88
2019-03-13T11:53:29.940Z,43.88
2019-03-13T11:54:29.957Z,44.71
2019-03-13T11:55:29.914Z,43.90
2019-03-13T11:56:29.900Z,44.10
2019-03-13T11:57:30.112Z,44.00
2019-03-13T11:58:29.892Z,44.32
2019-03-13T11:59:29.876Z,45.12
2019-03-13T12:00:29.862Z,44.32
2019-03-13T12:01:29.844Z,43.38
2019-03-13T12:02:29.834Z,43.69
2019-03-13T12:03:29.928Z,44.23
2019-03-13T12:04:29.813Z,44.73
2019-03-13T12:05:29.802Z,44.32
2019-03-13T12:06:29.880Z,44.65
2019-03-13T12:07:29.913Z,44.96
2019-03-13T12:08:29.783Z,44.96
2019-03-13T12:09:29.929Z,45.68
2019-03-13T12:10:29.751Z,45.89
2019-03-13T12:11:29.789Z,45.47
2019-03-13T12:12:29.722Z,45.27
2019-03-13T12:13:29.771Z,44.45
2019-03-13T12:14:29.715Z,44.96
2019-03-13T12:15:29.970Z,45.27
2019-03-13T12:16:29.705Z,44.45
2019-03-13T12:17:29.757Z,45.47
2019-03-13T12:18:29.702Z,46.01
2019-03-13T12:19:29.889Z,45.68
2019-03-13T12:20:29.716Z,45.57
2019-03-13T12:21:29.684Z,46.01
2019-03-13T12:22:29.724Z,46.09
2019-03-13T12:23:29.605Z,46.09
2019-03-13T12:24:29.791Z,46.11
2019-03-13T12:25:29.598Z,46.21
2019-03-13T12:26:29.625Z,46.44
2019-03-13T12:27:29.653Z,45.72
2019-03-13T12:28:29.629Z,47.26
2019-03-13T12:29:29.541Z,47.26
2019-03-13T12:30:29.866Z,47.03
2019-03-13T12:31:29.527Z,46.52
2019-03-13T12:32:29.512Z,46.72
2019-03-13T12:33:29.514Z,46.09
2019-03-13T12:34:29.495Z,45.80
2019-03-13T12:35:29.488Z,45.50
2019-03-13T12:36:29.861Z,45.78
2019-03-13T12:37:29.452Z,45.89
2019-03-13T12:38:29.462Z,46.11
2019-03-13T12:39:29.436Z,45.90
2019-03-13T12:40:29.415Z,45.90
2019-03-13T12:41:29.403Z,46.30
2019-03-13T12:42:29.587Z,45.80
2019-03-13T12:43:29.564Z,46.60
2019-03-13T12:44:29.529Z,45.60
2019-03-13T12:45:30.607Z,45.70
2019-03-13T12:46:29.356Z,46.30
2019-03-13T12:47:29.360Z,46.31
2019-03-13T12:48:29.352Z,46.21
2019-03-13T12:49:29.321Z,46.42
2019-03-13T12:50:29.429Z,46.11
2019-03-13T12:51:29.302Z,45.90
2019-03-13T12:52:29.310Z,46.09